MMDO/DGO METAR and TAF weather

Enter ICAO airport designator
Station Type Date Time Source
MMDO METAR 2022/01/25 02:45 UTC NOAA

MMDO 250245Z 26007KT 7SM FEW035 12/01 A3010 RMK 8/800


Station Type Date Time Source
MMDO Decoded METAR 2022/01/25 02:45 UTC NOAA

Durango Airport, Mexico (MMDO) 24-08N 104-32W
Jan 24, 2022 - 09:45 PM EST / 2022.01.25 0245 UTC
Wind: from the W (260 degrees) at 8 MPH (7 KT):0
Visibility: 7 mile(s):0
Sky conditions: mostly clear
Temperature: 53 F (12 C)
Dew Point: 33 F (1 C)
Relative Humidity: 46%
Pressure (altimeter): 30.1 in. Hg (1019 hPa)
ob: MMDO 250245Z 26007KT 7SM FEW035 12/01 A3010 RMK 8/800
cycle: 3

Station Type Date Time Source
MMDO TAF 2022/01/25 06:28 UTC NOAA

TAF MMDO 250420Z 2506/2606 26008KT P6SM SCT030
FM251800 24012KT P6SM SCT030
FM260200 24005KT P6SM SKC

Example: see airport list